Time;durP1;ratioP1;P1;durP2;ratioP2;P2;SDS_P1;SDS_P2;PMS_P1;PMS_P2;Temp;Humidity;BMP_temperature;BMP_pressure;BME280_temperature;BME280_humidity;BME280_pressure;Samples;Min_cycle;Max_cycle;Signal;HPM_P1;HPM_P2
2021/06/15 00:02:18;;;;;;;26.55;3.70;;;43.90;18.00;;;;;;4772196;30;20083;-71
2021/06/15 00:04:45;;;;;;;16.70;3.80;;;43.90;18.00;;;;;;4772471;30;20450;-71
2021/06/15 00:07:17;;;;;;;17.23;3.70;;;43.70;17.80;;;;;;4769185;30;20169;-72
2021/06/15 00:09:44;;;;;;;17.10;3.45;;;43.70;18.00;;;;;;4771260;30;20099;-70
2021/06/15 00:12:11;;;;;;;18.77;3.22;;;43.60;17.60;;;;;;4770290;30;20080;-71
2021/06/15 00:14:38;;;;;;;16.83;3.42;;;43.60;18.60;;;;;;4770384;30;20197;-70
2021/06/15 00:17:06;;;;;;;16.67;3.22;;;43.50;17.90;;;;;;4769644;30;20084;-70
2021/06/15 00:19:33;;;;;;;18.00;3.50;;;43.40;17.90;;;;;;4770649;30;20104;-71
2021/06/15 00:22:00;;;;;;;19.67;3.42;;;43.50;18.10;;;;;;4770597;30;20561;-71
2021/06/15 00:24:26;;;;;;;22.15;3.05;;;43.60;17.90;;;;;;4770925;30;20088;-71
2021/06/15 00:26:53;;;;;;;15.43;3.45;;;43.60;18.20;;;;;;4770086;30;20083;-71
2021/06/15 00:29:19;;;;;;;15.32;3.50;;;43.50;18.30;;;;;;4770432;30;20096;-70
2021/06/15 00:31:47;;;;;;;17.55;3.42;;;43.30;18.40;;;;;;4771217;30;20167;-72
2021/06/15 00:34:14;;;;;;;26.13;3.33;;;43.20;18.70;;;;;;4769331;30;20106;-73
2021/06/15 00:36:40;;;;;;;16.08;3.40;;;43.20;19.20;;;;;;4769947;30;20083;-72
2021/06/15 00:39:07;;;;;;;21.98;3.50;;;43.20;18.60;;;;;;4769402;30;20127;-71
2021/06/15 00:41:34;;;;;;;14.20;3.72;;;43.10;18.30;;;;;;4769649;30;20153;-71
2021/06/15 00:44:00;;;;;;;28.63;3.40;;;42.90;19.10;;;;;;4770755;30;20496;-71
2021/06/15 00:46:27;;;;;;;19.15;3.45;;;42.80;19.20;;;;;;4769228;30;20171;-72
2021/06/15 00:48:54;;;;;;;19.90;3.65;;;42.80;19.00;;;;;;4770167;30;20084;-71
2021/06/15 00:51:21;;;;;;;20.25;3.80;;;42.50;18.60;;;;;;4768557;30;20076;-71
2021/06/15 00:53:49;;;;;;;22.05;3.13;;;42.40;18.80;;;;;;4769767;30;20616;-71
2021/06/15 00:56:15;;;;;;;31.50;3.70;;;42.40;19.10;;;;;;4768589;30;20088;-71
2021/06/15 00:58:42;;;;;;;24.15;3.80;;;42.20;19.10;;;;;;4768105;30;20100;-71
2021/06/15 01:01:08;;;;;;;17.83;3.58;;;42.20;19.50;;;;;;4768234;30;20087;-70
2021/06/15 01:03:35;;;;;;;20.65;3.40;;;42.10;19.30;;;;;;4769799;30;20129;-72
2021/06/15 01:06:09;;;;;;;21.75;3.70;;;42.10;19.00;;;;;;4768394;30;20083;-71
2021/06/15 01:08:48;;;;;;;18.92;3.70;;;42.00;19.30;;;;;;4767972;30;20084;-71
2021/06/15 01:11:50;;;;;;;24.95;4.30;;;42.10;19.20;;;;;;4768516;30;20087;-71
2021/06/15 01:14:43;;;;;;;24.00;3.75;;;42.00;19.30;;;;;;4769006;30;20199;-70
2021/06/15 01:17:20;;;;;;;20.40;3.58;;;41.90;19.10;;;;;;4769150;30;20084;-71
2021/06/15 01:20:23;;;;;;;21.30;3.90;;;41.90;19.60;;;;;;4769010;30;20148;-71
2021/06/15 01:23:26;;;;;;;17.35;3.50;;;41.90;19.60;;;;;;4769147;30;20103;-72
2021/06/15 01:26:14;;;;;;;26.58;3.25;;;41.80;19.60;;;;;;4768278;30;20094;-72
2021/06/15 01:28:48;;;;;;;23.30;3.92;;;41.80;19.60;;;;;;4768327;30;20087;-72
2021/06/15 01:31:44;;;;;;;19.67;4.00;;;41.80;19.70;;;;;;4767860;30;20071;-72
2021/06/15 01:34:31;;;;;;;23.05;4.32;;;41.70;19.60;;;;;;4768696;30;20104;-71
2021/06/15 01:37:07;;;;;;;18.42;3.53;;;41.60;19.90;;;;;;4772948;30;20440;-72
2021/06/15 01:39:49;;;;;;;24.88;4.15;;;41.40;20.00;;;;;;4771800;30;20127;-71
2021/06/15 01:42:20;;;;;;;21.98;3.80;;;41.30;20.10;;;;;;4778066;30;20527;-72
2021/06/15 01:44:56;;;;;;;25.23;3.63;;;41.20;20.10;;;;;;4769570;30;20084;-72
2021/06/15 01:47:24;;;;;;;;;;;41.10;20.50;;;;;;4771142;30;20047;-71
2021/06/15 01:50:01;;;;;;;16.42;3.60;;;41.10;22.70;;;;;;4771871;30;20030;-73
2021/06/15 01:52:34;;;;;;;20.00;3.85;;;40.90;20.20;;;;;;4772831;30;20046;-71
2021/06/15 01:55:04;;;;;;;17.65;4.32;;;40.80;29.00;;;;;;4772273;30;20039;-71
2021/06/15 01:57:32;;;;;;;22.58;3.75;;;40.80;20.70;;;;;;4775713;30;20085;-71
2021/06/15 02:00:06;;;;;;;21.70;3.70;;;40.70;20.90;;;;;;4773381;30;20082;-72
2021/06/15 02:02:34;;;;;;;16.30;3.97;;;40.70;20.70;;;;;;4773152;30;20076;-71
2021/06/15 02:05:00;;;;;;;20.65;4.10;;;40.60;20.90;;;;;;4772860;30;20575;-71
2021/06/15 02:07:31;;;;;;;33.88;4.55;;;40.50;21.10;;;;;;4773228;30;20463;-74
2021/06/15 02:10:07;;;;;;;34.58;4.43;;;40.50;21.20;;;;;;4772998;30;20080;-72
2021/06/15 02:12:40;;;;;;;33.95;4.43;;;40.40;20.90;;;;;;4778801;24;20126;-72
2021/06/15 02:15:10;;;;;;;32.85;5.22;;;40.30;21.10;;;;;;4774078;30;20070;-72
2021/06/15 02:17:43;;;;;;;24.95;4.18;;;40.10;20.90;;;;;;4759662;30;20087;-72
2021/06/15 02:20:12;;;;;;;26.52;4.13;;;40.10;21.00;;;;;;4757653;30;20076;-73
2021/06/15 02:22:46;;;;;;;27.98;4.43;;;40.00;21.30;;;;;;4758936;30;20077;-71
2021/06/15 02:25:18;;;;;;;19.77;4.00;;;39.90;21.80;;;;;;4758261;30;20079;-71
2021/06/15 02:27:46;;;;;;;30.17;4.60;;;39.90;21.40;;;;;;4758173;30;20557;-72
2021/06/15 02:30:13;;;;;;;24.98;4.93;;;39.80;21.60;;;;;;4781738;24;20112;-72
2021/06/15 02:32:42;;;;;;;24.90;4.85;;;39.70;21.60;;;;;;4773718;29;20088;-73
2021/06/15 02:35:11;;;;;;;32.38;5.20;;;39.60;22.10;;;;;;4791316;29;20095;-72
2021/06/15 02:38:09;;;;;;;29.95;4.32;;;39.50;21.90;;;;;;4775322;29;20072;-70
2021/06/15 02:40:36;;;;;;;32.75;4.78;;;39.40;22.10;;;;;;4777811;29;20087;-71
2021/06/15 02:43:06;;;;;;;25.60;4.53;;;39.30;22.00;;;;;;4776241;29;20438;-72
2021/06/15 02:45:35;;;;;;;22.98;4.43;;;39.20;22.40;;;;;;4775017;30;20083;-72
2021/06/15 02:48:06;;;;;;;27.10;4.90;;;39.20;22.40;;;;;;4774951;30;20091;-71
2021/06/15 02:50:36;;;;;;;29.42;4.95;;;39.10;23.10;;;;;;4774051;30;20125;-72
2021/06/15 02:53:26;;;;;;;36.30;5.28;;;39.00;22.80;;;;;;4773654;30;20618;-71
2021/06/15 02:56:02;;;;;;;31.58;4.53;;;38.80;22.80;;;;;;4773200;30;20084;-71
2021/06/15 02:58:29;;;;;;;25.35;5.30;;;38.80;23.20;;;;;;4788232;29;20176;-71
2021/06/15 03:00:56;;;;;;;45.67;6.20;;;38.70;23.40;;;;;;4785272;30;20075;-72
2021/06/15 03:03:22;;;;;;;42.35;6.25;;;38.60;23.50;;;;;;4774279;30;20080;-72
2021/06/15 03:05:49;;;;;;;50.78;5.93;;;38.50;23.70;;;;;;4786875;29;20154;-74
2021/06/15 03:08:16;;;;;;;54.63;6.03;;;38.40;23.90;;;;;;4774080;30;20187;-72
2021/06/15 03:10:43;;;;;;;48.28;6.30;;;38.30;24.00;;;;;;4774580;30;20494;-70
2021/06/15 03:13:37;;;;;;;52.22;6.28;;;38.20;24.10;;;;;;4785788;30;20118;-72
2021/06/15 03:16:07;;;;;;;50.50;5.95;;;38.20;24.40;;;;;;4772489;30;20565;-71
2021/06/15 03:19:17;;;;;;;48.28;6.50;;;38.10;24.50;;;;;;4787476;30;20146;-71
2021/06/15 03:21:54;;;;;;;47.22;6.28;;;38.00;24.90;;;;;;4782132;30;20096;-73
2021/06/15 03:24:24;;;;;;;60.97;7.28;;;37.80;25.10;;;;;;4782999;24;20123;-73
2021/06/15 03:26:58;;;;;;;48.70;7.22;;;37.80;25.40;;;;;;4787433;24;20135;-71
2021/06/15 03:29:29;;;;;;;54.28;7.30;;;37.70;25.60;;;;;;4776696;30;20622;-72
2021/06/15 03:32:00;;;;;;;56.05;6.82;;;37.60;25.90;;;;;;4778216;30;20084;-71
2021/06/15 03:34:30;;;;;;;64.70;7.53;;;37.50;25.80;;;;;;4777804;30;20482;-72
2021/06/15 03:36:58;;;;;;;45.95;6.90;;;37.40;26.00;;;;;;4789909;29;20107;-72
2021/06/15 03:39:29;;;;;;;56.80;7.60;;;37.40;26.20;;;;;;4778643;30;20167;-70
2021/06/15 03:42:02;;;;;;;54.65;8.32;;;37.30;26.40;;;;;;4792329;30;20106;-71
2021/06/15 03:44:29;;;;;;;53.00;7.93;;;37.30;26.60;;;;;;4778511;30;20090;-73
2021/06/15 03:46:58;;;;;;;57.28;7.88;;;37.10;34.10;;;;;;4790521;29;20076;-70
2021/06/15 03:49:26;;;;;;;59.95;8.35;;;37.20;26.50;;;;;;4793672;30;20180;-72
2021/06/15 03:51:57;;;;;;;55.50;9.15;;;37.00;26.40;;;;;;4780688;30;20171;-71
2021/06/15 03:54:27;;;;;;;130.32;11.50;;;37.00;26.80;;;;;;4777740;29;21560;-72
2021/06/15 03:56:57;;;;;;;129.57;12.88;;;36.90;27.00;;;;;;4776679;30;20543;-71
2021/06/15 03:59:27;;;;;;;60.78;10.93;;;36.90;27.30;;;;;;4774861;30;20091;-71
2021/06/15 04:02:03;;;;;;;69.10;10.73;;;36.80;27.20;;;;;;4775967;30;20095;-71
2021/06/15 04:04:31;;;;;;;;;;;36.70;26.60;;;;;;4774433;30;20091;-71
2021/06/15 04:09:26;;;;;;;66.15;9.57;;;36.70;27.10;;;;;;4794811;24;20130;-71
2021/06/15 04:11:58;;;;;;;68.13;11.23;;;36.60;27.30;;;;;;4789335;29;20091;-71
2021/06/15 04:14:27;;;;;;;69.68;12.88;;;36.60;27.10;;;;;;4772179;30;20118;-70
2021/06/15 04:16:55;;;;;;;81.75;15.23;;;36.50;27.00;;;;;;4782190;30;20534;-71
2021/06/15 04:19:35;;;;;;;85.45;17.60;;;36.40;26.80;;;;;;4787190;30;20096;-70
2021/06/15 04:22:03;;;;;;;90.93;21.85;;;36.40;26.80;;;;;;4788544;30;20072;-71
2021/06/15 04:24:32;;;;;;;87.88;19.60;;;36.30;26.90;;;;;;4789810;30;20445;-70
2021/06/15 04:27:00;;;;;;;75.95;20.95;;;36.30;26.70;;;;;;4783791;30;20443;-71
2021/06/15 04:29:28;;;;;;;100.38;22.90;;;36.20;26.90;;;;;;4784175;30;20027;-71
2021/06/15 04:32:08;;;;;;;89.53;21.25;;;36.10;27.20;;;;;;4778350;24;20162;-71
2021/06/15 04:34:40;;;;;;;81.05;21.50;;;36.00;42.30;;;;;;4773387;30;20187;-72
2021/06/15 04:37:09;;;;;;;82.22;19.80;;;36.00;27.30;;;;;;4782493;30;20091;-71
2021/06/15 04:39:47;;;;;;;76.95;17.85;;;35.90;27.10;;;;;;4782894;30;20543;-71
2021/06/15 04:42:23;;;;;;;62.30;17.17;;;35.80;27.30;;;;;;4782329;30;20109;-71
2021/06/15 04:44:52;;;;;;;66.53;16.10;;;35.30;55.80;;;;;;4782153;30;20027;-71
2021/06/15 04:47:26;;;;;;;70.57;15.35;;;35.60;30.90;;;;;;4787050;30;20114;-71
2021/06/15 04:50:25;;;;;;;66.93;15.20;;;35.60;45.70;;;;;;4775396;30;20083;-70
2021/06/15 04:52:55;;;;;;;75.68;13.95;;;35.60;27.50;;;;;;4771168;30;20176;-71
2021/06/15 04:55:26;;;;;;;66.22;13.43;;;35.50;27.40;;;;;;4785605;30;20617;-70
2021/06/15 04:57:55;;;;;;;62.55;13.00;;;35.50;27.40;;;;;;4772740;30;20081;-70
2021/06/15 05:00:25;;;;;;;62.42;14.45;;;35.40;27.40;;;;;;4774376;30;20103;-72
2021/06/15 05:02:53;;;;;;;54.92;14.10;;;35.30;35.00;;;;;;4781443;30;20078;-70
2021/06/15 05:05:22;;;;;;;62.30;14.32;;;35.30;27.90;;;;;;4773745;30;20088;-71
2021/06/15 05:08:01;;;;;;;65.53;15.38;;;35.30;27.90;;;;;;4773968;30;20088;-69
2021/06/15 05:10:32;;;;;;;65.70;15.10;;;35.20;27.90;;;;;;4787111;30;20109;-70
2021/06/15 05:13:00;;;;;;;59.63;14.88;;;35.10;27.90;;;;;;4771578;30;20107;-70
2021/06/15 05:15:28;;;;;;;59.25;14.85;;;35.00;27.50;;;;;;4772217;30;20547;-70
2021/06/15 05:17:57;;;;;;;60.63;15.50;;;34.80;58.70;;;;;;4773431;30;20024;-72
2021/06/15 05:20:25;;;;;;;72.20;16.05;;;34.80;27.80;;;;;;4769066;30;20084;-71
2021/06/15 05:23:09;;;;;;;52.72;14.70;;;34.70;27.40;;;;;;4787742;30;20077;-71
2021/06/15 05:25:37;;;;;;;62.22;14.15;;;34.70;27.60;;;;;;4775106;30;20495;-71
2021/06/15 05:28:04;;;;;;;67.45;14.43;;;34.70;27.30;;;;;;4788425;29;20075;-71
2021/06/15 05:30:31;;;;;;;46.72;13.52;;;34.70;27.60;;;;;;4793464;29;20087;-71
2021/06/15 05:32:58;;;;;;;56.55;14.73;;;34.60;26.90;;;;;;4783435;29;20124;-71
2021/06/15 05:35:28;;;;;;;56.00;13.55;;;34.60;27.30;;;;;;4764437;30;20046;-71
2021/06/15 05:37:55;;;;;;;49.40;14.50;;;;;;;;;;4763208;30;20497;-70
2021/06/15 05:40:22;;;;;;;53.95;14.50;;;34.50;27.00;;;;;;4775200;30;20090;-71
2021/06/15 05:42:50;;;;;;;56.42;14.73;;;34.40;27.40;;;;;;4770866;30;20084;-72
2021/06/15 05:45:17;;;;;;;55.60;13.82;;;34.30;27.30;;;;;;4780011;30;20080;-71
2021/06/15 05:47:44;;;;;;;42.70;12.00;;;34.30;27.50;;;;;;4768656;24;20212;-71
2021/06/15 05:50:14;;;;;;;62.75;13.43;;;34.20;27.80;;;;;;4757990;30;20802;-71
2021/06/15 05:52:41;;;;;;;56.33;13.02;;;34.10;27.90;;;;;;4757175;30;20085;-71
2021/06/15 05:55:11;;;;;;;49.28;11.75;;;;;;;;;;4748008;30;20108;-70
2021/06/15 05:57:38;;;;;;;70.15;12.98;;;33.90;30.60;;;;;;4757706;30;20053;-70
2021/06/15 06:00:06;;;;;;;54.97;11.98;;;34.10;27.70;;;;;;4757708;30;20032;-70
2021/06/15 06:02:33;;;;;;;44.42;10.98;;;33.90;28.20;;;;;;4754614;24;20574;-71
2021/06/15 06:10:12;;;;;;;35.33;7.43;;;33.90;26.30;;;;;;4740986;30;20127;-70
2021/06/15 06:12:39;;;;;;;32.25;6.78;;;33.90;25.90;;;;;;4738960;30;20165;-72
2021/06/15 06:15:07;;;;;;;30.77;6.82;;;33.70;40.80;;;;;;4725039;30;20105;-70
2021/06/15 06:17:34;;;;;;;35.35;6.53;;;33.90;25.80;;;;;;4739735;30;20452;-71
2021/06/15 06:20:01;;;;;;;32.80;6.65;;;33.90;26.00;;;;;;4746843;24;20132;-70
2021/06/15 06:22:28;;;;;;;30.33;6.88;;;34.00;26.70;;;;;;4756022;30;20143;-70
2021/06/15 06:24:59;;;;;;;29.98;6.75;;;34.00;27.10;;;;;;4756091;30;20077;-70
2021/06/15 06:27:25;;;;;;;30.17;7.40;;;34.00;27.30;;;;;;4755862;30;20108;-70
2021/06/15 06:29:52;;;;;;;29.67;8.65;;;34.00;27.30;;;;;;4756708;30;20069;-70
2021/06/15 06:32:18;;;;;;;35.97;8.52;;;33.90;27.20;;;;;;4754838;30;20091;-69
2021/06/15 06:34:45;;;;;;;39.88;8.18;;;34.00;27.50;;;;;;4761302;24;20135;-69
2021/06/15 06:37:12;;;;;;;38.40;8.35;;;33.90;27.60;;;;;;4755592;30;20084;-69
2021/06/15 06:39:42;;;;;;;28.83;7.50;;;33.90;27.70;;;;;;4755356;30;20087;-69
2021/06/15 06:42:11;;;;;;;37.38;7.93;;;33.90;27.90;;;;;;4756808;30;20077;-70
2021/06/15 06:44:37;;;;;;;31.35;7.75;;;34.00;64.50;;;;;;4756535;30;20108;-70
2021/06/15 06:47:04;;;;;;;39.90;9.75;;;34.00;28.70;;;;;;4757095;30;20058;-70
2021/06/15 06:49:30;;;;;;;36.63;8.55;;;33.80;28.30;;;;;;4756970;30;20093;-71
2021/06/15 06:51:57;;;;;;;35.60;8.95;;;33.70;28.40;;;;;;4756146;30;20101;-69
2021/06/15 06:54:24;;;;;;;44.00;9.15;;;33.40;58.80;;;;;;4755814;30;20107;-71
2021/06/15 06:56:52;;;;;;;37.58;8.35;;;33.60;41.40;;;;;;4756133;30;20509;-71
2021/06/15 06:59:19;;;;;;;47.75;9.23;;;;;;;;;;4756372;30;20036;-70
2021/06/15 07:01:46;;;;;;;44.22;8.32;;;;;;;;;;4754049;30;20036;-69
2021/06/15 07:04:13;;;;;;;34.83;9.05;;;;;;;;;;4754181;30;20064;-70
2021/06/15 07:06:40;;;;;;;38.65;9.55;;;;;;;;;;4755540;30;20033;-71
2021/06/15 07:09:07;;;;;;;43.53;8.93;;;;;;;;;;4756076;30;20028;-70
2021/06/15 07:11:33;;;;;;;44.13;8.48;;;;;;;;;;4755935;30;20051;-70
